Time;durP1;ratioP1;P1;durP2;ratioP2;P2;SDS_P1;SDS_P2;PMS_P1;PMS_P2;Temp;Humidity;BMP_temperature;BMP_pressure;BME280_temperature;BME280_humidity;BME280_pressure;Samples;Min_cycle;Max_cycle;Signal;HPM_P1;HPM_P2
2022/03/19 00:01:36;;;;;;;13.52;5.53;;;;;;;;;;5051459;28;20467;-69
2022/03/19 00:04:02;;;;;;;10.43;4.72;;;;;;;;;;5033312;28;20016;-67
2022/03/19 00:06:28;;;;;;;22.10;5.57;;;;;;;;;;5051152;28;20054;-68
2022/03/19 00:08:56;;;;;;;21.13;5.28;;;;;;;;;;5050648;28;20013;-68
2022/03/19 00:11:23;;;;;;;18.13;4.68;;;;;;;;;;5050888;28;20469;-68
2022/03/19 00:13:48;;;;;;;19.50;4.82;;;;;;;;;;5051329;28;20531;-68
2022/03/19 00:16:13;;;;;;;13.95;5.32;;;;;;;;;;5050761;28;20032;-68
2022/03/19 00:18:38;;;;;;;14.88;5.43;;;;;;;;;;5051410;28;20017;-68
2022/03/19 00:21:04;;;;;;;13.00;5.90;;;;;;;;;;5051277;28;20021;-68
2022/03/19 00:23:30;;;;;;;9.35;4.30;;;;;;;;;;5050978;28;20017;-68
2022/03/19 00:25:55;;;;;;;13.23;4.43;;;;;;;;;;5051203;28;20041;-68
2022/03/19 00:28:20;;;;;;;10.60;4.70;;;;;;;;;;5050733;28;20013;-68
2022/03/19 00:30:49;;;;;;;9.60;4.50;;;;;;;;;;5050662;28;20017;-67
2022/03/19 00:33:14;;;;;;;14.45;5.32;;;;;;;;;;5050836;28;20020;-67
2022/03/19 00:35:40;;;;;;;16.60;5.30;;;;;;;;;;5032815;28;20477;-67
2022/03/19 00:38:05;;;;;;;13.93;5.28;;;;;;;;;;5050869;28;20063;-67
2022/03/19 00:40:32;;;;;;;12.52;4.72;;;;;;;;;;5032316;28;20048;-67
2022/03/19 00:42:57;;;;;;;18.25;5.18;;;;;;;;;;5050628;28;20485;-67
2022/03/19 00:45:22;;;;;;;14.47;5.87;;;;;;;;;;5050607;28;20131;-67
2022/03/19 00:47:48;;;;;;;15.63;4.97;;;;;;;;;;5050541;28;20248;-67
2022/03/19 00:50:13;;;;;;;10.52;4.85;;;;;;;;;;5050255;28;20032;-67
2022/03/19 00:52:39;;;;;;;12.90;5.20;;;;;;;;;;5050692;28;20021;-69
2022/03/19 00:55:04;;;;;;;13.35;5.07;;;;;;;;;;5050656;28;20012;-67
2022/03/19 00:57:40;;;;;;;14.38;5.05;;;;;;;;;;5050513;28;20100;-68
2022/03/19 01:00:05;;;;;;;9.20;5.18;;;;;;;;;;5050327;28;20020;-68
2022/03/19 01:02:30;;;;;;;12.68;4.63;;;;;;;;;;5050641;28;20028;-67
2022/03/19 01:04:55;;;;;;;15.43;5.63;;;;;;;;;;5050789;28;20062;-68
2022/03/19 01:07:21;;;;;;;12.50;5.00;;;;;;;;;;5050150;28;20049;-67
2022/03/19 01:09:46;;;;;;;14.40;6.05;;;;;;;;;;5050330;28;20267;-68
2022/03/19 01:12:11;;;;;;;13.65;5.85;;;;;;;;;;5050048;28;20082;-67
2022/03/19 01:14:36;;;;;;;12.68;4.82;;;;;;;;;;5050497;28;20024;-68
2022/03/19 01:17:03;;;;;;;16.33;5.95;;;;;;;;;;5050552;28;20067;-67
2022/03/19 01:22:12;;;;;;;16.35;4.55;;;;;;;;;;5050047;28;20095;-68
2022/03/19 01:24:37;;;;;;;13.40;5.22;;;;;;;;;;5050075;28;20462;-68
2022/03/19 01:27:03;;;;;;;19.63;6.03;;;;;;;;;;5050222;28;20024;-67
2022/03/19 01:29:28;;;;;;;15.15;4.88;;;;;;;;;;5049723;28;20704;-68
2022/03/19 01:31:53;;;;;;;19.63;6.57;;;;;;;;;;5049781;28;20131;-68
2022/03/19 01:34:18;;;;;;;14.85;4.93;;;;;;;;;;5049863;28;20497;-68
2022/03/19 01:36:43;;;;;;;17.10;4.72;;;;;;;;;;5049165;28;20080;-68
2022/03/19 01:39:09;;;;;;;16.08;5.03;;;;;;;;;;5048005;28;20028;-68
2022/03/19 01:41:39;;;;;;;12.02;4.78;;;;;;;;;;5049933;28;20009;-68
2022/03/19 01:44:04;;;;;;;17.00;4.72;;;;;;;;;;5050459;28;20087;-68
2022/03/19 01:46:29;;;;;;;19.40;5.32;;;;;;;;;;5049919;28;20056;-68
2022/03/19 01:48:55;;;;;;;12.30;4.80;;;;;;;;;;5048958;28;20045;-68
2022/03/19 01:51:20;;;;;;;15.27;4.75;;;;;;;;;;5049984;28;20616;-68
2022/03/19 01:56:13;;;;;;;12.23;5.63;;;;;;;;;;5071506;22;20304;-66
2022/03/19 01:58:38;;;;;;;15.93;5.00;;;;;;;;;;5049181;28;20347;-66
2022/03/19 02:01:04;;;;;;;14.52;5.25;;;;;;;;;;5049766;28;20468;-66
2022/03/19 02:03:29;;;;;;;19.42;6.35;;;;;;;;;;5049707;28;20275;-66
2022/03/19 02:05:55;;;;;;;16.02;5.28;;;;;;;;;;5049408;28;20025;-66
2022/03/19 02:08:20;;;;;;;13.13;5.13;;;;;;;;;;5049817;28;20365;-65
2022/03/19 02:10:46;;;;;;;10.90;4.40;;;;;;;;;;5049588;28;20094;-66
2022/03/19 02:13:11;;;;;;;13.93;5.63;;;;;;;;;;5049611;28;20028;-65
2022/03/19 02:15:36;;;;;;;16.25;5.15;;;;;;;;;;5049478;28;20033;-66
2022/03/19 02:18:02;;;;;;;16.55;4.95;;;;;;;;;;5049843;28;20029;-66
2022/03/19 02:20:31;;;;;;;11.13;4.93;;;;;;;;;;5049571;28;20414;-66
2022/03/19 02:25:40;;;;;;;9.98;4.03;;;;;;;;;;5049874;28;20108;-65
2022/03/19 02:28:06;;;;;;;15.70;5.43;;;;;;;;;;5049756;28;20041;-66
2022/03/19 02:30:32;;;;;;;18.00;4.22;;;;;;;;;;5050339;28;20104;-66
2022/03/19 02:32:58;;;;;;;13.68;4.97;;;;;;;;;;5053282;28;20397;-65
2022/03/19 02:35:23;;;;;;;11.73;5.00;;;;;;;;;;5053134;28;20052;-65
2022/03/19 02:37:49;;;;;;;16.10;4.87;;;;;;;;;;5053181;28;20477;-65
2022/03/19 02:40:16;;;;;;;11.55;4.32;;;;;;;;;;5052669;28;20283;-65
2022/03/19 02:42:41;;;;;;;13.43;4.43;;;;;;;;;;5052936;28;20223;-65
2022/03/19 02:45:07;;;;;;;14.80;4.82;;;;;;;;;;5053050;28;20119;-65
2022/03/19 02:47:33;;;;;;;14.00;4.90;;;;;;;;;;5052620;28;20021;-66
2022/03/19 02:49:58;;;;;;;8.25;4.20;;;;;;;;;;5052798;28;20112;-66
2022/03/19 02:52:24;;;;;;;11.77;4.15;;;;;;;;;;5052958;28;20451;-66
2022/03/19 02:54:49;;;;;;;11.45;4.25;;;;;;;;;;5052559;28;20039;-65
2022/03/19 02:57:14;;;;;;;19.35;7.18;;;;;;;;;;5052823;28;20021;-66
2022/03/19 02:59:39;;;;;;;13.90;4.83;;;;;;;;;;5052204;28;20377;-66
2022/03/19 03:02:05;;;;;;;9.50;4.38;;;;;;;;;;5052701;28;20255;-65
2022/03/19 03:04:31;;;;;;;11.90;4.72;;;;;;;;;;5052386;28;20032;-66
2022/03/19 03:06:57;;;;;;;14.15;4.65;;;;;;;;;;5052762;28;20029;-66
2022/03/19 03:09:24;;;;;;;14.00;5.25;;;;;;;;;;5051435;28;20013;-65
2022/03/19 03:11:49;;;;;;;18.25;4.70;;;;;;;;;;5052412;28;20017;-66
2022/03/19 03:14:15;;;;;;;12.18;4.55;;;;;;;;;;5052489;28;20029;-66
2022/03/19 03:16:41;;;;;;;18.63;5.50;;;;;;;;;;5052164;28;20020;-65
2022/03/19 03:19:07;;;;;;;10.82;4.53;;;;;;;;;;5052113;28;20013;-66
2022/03/19 03:21:33;;;;;;;9.25;4.65;;;;;;;;;;5052490;28;20025;-66
2022/03/19 03:23:59;;;;;;;11.38;5.00;;;;;;;;;;5052136;28;20024;-65
2022/03/19 03:26:25;;;;;;;12.80;4.82;;;;;;;;;;5052602;28;20028;-66
2022/03/19 03:28:50;;;;;;;15.45;4.45;;;;;;;;;;5052103;28;20013;-65
2022/03/19 03:31:15;;;;;;;14.27;5.28;;;;;;;;;;5051482;28;20024;-65
2022/03/19 03:33:40;;;;;;;11.45;4.55;;;;;;;;;;5050369;28;20025;-65
2022/03/19 03:36:05;;;;;;;11.00;4.75;;;;;;;;;;5051527;28;20053;-67
2022/03/19 03:38:31;;;;;;;12.73;4.05;;;;;;;;;;5051515;28;20036;-65
2022/03/19 03:40:56;;;;;;;12.75;5.00;;;;;;;;;;5051951;28;20100;-65
2022/03/19 03:43:21;;;;;;;10.18;3.95;;;;;;;;;;5050936;28;20067;-65
2022/03/19 03:45:46;;;;;;;9.20;4.15;;;;;;;;;;5051622;28;20021;-65
2022/03/19 03:48:12;;;;;;;13.30;4.60;;;;;;;;;;5051691;28;20017;-65
2022/03/19 03:50:37;;;;;;;10.68;4.22;;;;;;;;;;5051751;28;20025;-65
2022/03/19 03:53:04;;;;;;;15.00;4.25;;;;;;;;;;5052166;28;20018;-65
2022/03/19 03:55:29;;;;;;;8.38;4.15;;;;;;;;;;5051341;28;20033;-65
2022/03/19 03:57:54;;;;;;;13.23;5.22;;;;;;;;;;5051931;28;20025;-65
2022/03/19 04:00:19;;;;;;;10.88;4.35;;;;;;;;;;5051325;28;20055;-65
2022/03/19 04:02:45;;;;;;;14.20;5.25;;;;;;;;;;5051383;28;20032;-66
2022/03/19 04:05:10;;;;;;;10.30;4.65;;;;;;;;;;5051510;28;20094;-65
2022/03/19 04:07:35;;;;;;;12.98;4.25;;;;;;;;;;5051336;28;20048;-66
2022/03/19 04:10:01;;;;;;;14.65;4.72;;;;;;;;;;5051517;28;20495;-65
2022/03/19 04:12:26;;;;;;;10.40;5.20;;;;;;;;;;5051365;28;20370;-66
2022/03/19 04:14:52;;;;;;;14.30;4.93;;;;;;;;;;5051045;28;20047;-66
2022/03/19 04:17:17;;;;;;;13.70;6.03;;;;;;;;;;5051398;28;20017;-65
2022/03/19 04:19:42;;;;;;;15.73;4.82;;;;;;;;;;5050679;28;20079;-65
2022/03/19 04:22:07;;;;;;;14.60;4.90;;;;;;;;;;5051318;28;20029;-66
2022/03/19 04:24:32;;;;;;;13.32;5.45;;;;;;;;;;5050948;28;20247;-65
2022/03/19 04:26:58;;;;;;;17.85;4.68;;;;;;;;;;5051059;28;20478;-66
2022/03/19 04:29:23;;;;;;;9.82;4.60;;;;;;;;;;5051165;28;20393;-65
2022/03/19 04:31:48;;;;;;;9.73;4.72;;;;;;;;;;5050904;28;20021;-65
2022/03/19 04:34:13;;;;;;;13.00;4.40;;;;;;;;;;5051263;28;20478;-65
2022/03/19 04:36:38;;;;;;;17.35;5.68;;;;;;;;;;5050922;28;20354;-65
2022/03/19 04:39:05;;;;;;;14.02;5.05;;;;;;;;;;5050563;28;20420;-65
2022/03/19 04:41:30;;;;;;;13.80;4.97;;;;;;;;;;5050493;28;20104;-66
2022/03/19 04:43:55;;;;;;;12.15;4.57;;;;;;;;;;5050762;28;20469;-65
2022/03/19 04:46:21;;;;;;;14.75;4.60;;;;;;;;;;5050641;28;20110;-67
2022/03/19 04:48:46;;;;;;;12.45;4.97;;;;;;;;;;5050525;28;20024;-66
2022/03/19 04:51:16;;;;;;;12.38;4.95;;;;;;;;;;5050668;28;20108;-65
2022/03/19 04:53:41;;;;;;;12.82;4.43;;;;;;;;;;5050361;28;20067;-66
2022/03/19 04:56:07;;;;;;;11.40;4.85;;;;;;;;;;5050485;28;20072;-66
2022/03/19 04:58:33;;;;;;;11.45;4.82;;;;;;;;;;5050193;28;20151;-65
2022/03/19 05:00:58;;;;;;;16.65;5.60;;;;;;;;;;5050466;28;20017;-65
2022/03/19 05:03:23;;;;;;;14.52;4.68;;;;;;;;;;5050371;28;20017;-65
2022/03/19 05:05:49;;;;;;;17.33;4.70;;;;;;;;;;5050389;28;20032;-66
2022/03/19 05:08:14;;;;;;;16.42;5.00;;;;;;;;;;5050532;28;20027;-65
2022/03/19 05:13:23;;;;;;;15.43;5.13;;;;;;;;;;5050717;28;20059;-65
2022/03/19 05:15:48;;;;;;;21.67;4.80;;;;;;;;;;5050286;28;20473;-66
2022/03/19 05:18:13;;;;;;;19.10;4.80;;;;;;;;;;5050593;28;20029;-66
2022/03/19 05:20:39;;;;;;;15.35;4.68;;;;;;;;;;5049916;28;20017;-66
2022/03/19 05:23:04;;;;;;;12.13;4.65;;;;;;;;;;5050258;28;20446;-65
2022/03/19 05:25:29;;;;;;;24.55;5.70;;;;;;;;;;5050217;28;20018;-65
2022/03/19 05:27:55;;;;;;;16.45;5.07;;;;;;;;;;5050257;28;20013;-66
2022/03/19 05:30:20;;;;;;;11.27;5.28;;;;;;;;;;5050342;28;20021;-66
2022/03/19 05:32:45;;;;;;;11.95;4.90;;;;;;;;;;5050040;28;20035;-65
2022/03/19 05:35:10;;;;;;;15.15;5.30;;;;;;;;;;5049887;28;20033;-65
2022/03/19 05:37:36;;;;;;;15.13;5.10;;;;;;;;;;5049923;28;20025;-65
2022/03/19 05:40:04;;;;;;;10.35;5.72;;;;;;;;;;5049182;28;20629;-65
2022/03/19 05:42:29;;;;;;;11.93;5.47;;;;;;;;;;5049694;28;20389;-65
2022/03/19 05:44:55;;;;;;;17.73;5.57;;;;;;;;;;5049957;28;20292;-65
2022/03/19 05:47:20;;;;;;;20.70;5.47;;;;;;;;;;5049888;28;20426;-66
2022/03/19 05:49:46;;;;;;;14.52;5.20;;;;;;;;;;5049777;28;20017;-65
2022/03/19 05:52:11;;;;;;;15.10;5.22;;;;;;;;;;5050007;28;20028;-65
2022/03/19 05:54:36;;;;;;;12.30;5.60;;;;;;;;;;5049884;28;20037;-65
2022/03/19 05:57:01;;;;;;;12.43;5.75;;;;;;;;;;5049684;28;20115;-66
2022/03/19 05:59:26;;;;;;;15.63;6.30;;;;;;;;;;5049957;28;20384;-65
2022/03/19 06:01:52;;;;;;;16.40;6.22;;;;;;;;;;5049929;28;20021;-65
2022/03/19 06:04:17;;;;;;;11.88;5.57;;;;;;;;;;5048670;28;20060;-66
2022/03/19 06:06:43;;;;;;;17.05;6.20;;;;;;;;;;5052445;28;20049;-66
2022/03/19 06:09:08;;;;;;;17.58;5.22;;;;;;;;;;5053443;28;20075;-65
2022/03/19 06:11:33;;;;;;;14.25;5.20;;;;;;;;;;5053742;28;20043;-65
2022/03/19 06:13:58;;;;;;;12.57;5.82;;;;;;;;;;5053467;28;20021;-65
2022/03/19 06:16:24;;;;;;;14.95;5.45;;;;;;;;;;5053848;28;20492;-65
2022/03/19 06:18:52;;;;;;;13.32;5.03;;;;;;;;;;5053370;28;20097;-66
2022/03/19 06:21:18;;;;;;;16.40;5.95;;;;;;;;;;5053906;28;20036;-65
2022/03/19 06:23:46;;;;;;;13.52;5.35;;;;;;;;;;5053370;28;20468;-65
2022/03/19 06:26:12;;;;;;;11.50;5.03;;;;;;;;;;5053115;28;20040;-66
2022/03/19 06:28:37;;;;;;;16.75;5.57;;;;;;;;;;5053235;28;20017;-66
2022/03/19 06:31:03;;;;;;;18.23;5.85;;;;;;;;;;5053014;28;20028;-65
2022/03/19 06:33:28;;;;;;;17.50;6.30;;;;;;;;;;5053441;28;20076;-66
2022/03/19 06:38:37;;;;;;;21.88;6.05;;;;;;;;;;5052811;28;20032;-66
2022/03/19 06:41:02;;;;;;;16.13;5.28;;;;;;;;;;5052969;28;20025;-65
2022/03/19 06:43:27;;;;;;;22.75;5.90;;;;;;;;;;5053088;28;20056;-65
2022/03/19 06:45:58;;;;;;;13.27;5.47;;;;;;;;;;5052723;28;20028;-66
2022/03/19 06:48:23;;;;;;;11.05;5.10;;;;;;;;;;5052955;28;20021;-66
2022/03/19 06:50:50;;;;;;;17.90;6.60;;;;;;;;;;5052494;28;20032;-66
2022/03/19 06:53:15;;;;;;;16.77;5.22;;;;;;;;;;5052890;28;20091;-65
2022/03/19 06:55:40;;;;;;;13.85;5.40;;;;;;;;;;5052354;28;20200;-65
2022/03/19 06:58:05;;;;;;;13.77;5.00;;;;;;;;;;5052547;28;20053;-65
2022/03/19 07:00:30;;;;;;;12.73;4.45;;;;;;;;;;5052524;28;20389;-65
2022/03/19 07:02:56;;;;;;;13.37;5.17;;;;;;;;;;5052352;28;20048;-65
2022/03/19 07:05:28;;;;;;;15.35;3.95;;;;;;;;;;5052675;28;20339;-66
2022/03/19 07:07:53;;;;;;;11.90;4.15;;;;;;;;;;5052988;28;20021;-65
2022/03/19 07:10:19;;;;;;;11.40;4.57;;;;;;;;;;5052206;28;20027;-66
2022/03/19 07:12:44;;;;;;;10.30;4.28;;;;;;;;;;5052483;28;20032;-66
2022/03/19 07:15:13;;;;;;;12.35;4.43;;;;;;;;;;5052166;28;20020;-66
2022/03/19 07:17:39;;;;;;;15.30;4.18;;;;;;;;;;5051284;28;20033;-66
2022/03/19 07:20:04;;;;;;;10.20;5.07;;;;;;;;;;5051971;28;20387;-67
2022/03/19 07:22:44;;;;;;;11.30;3.50;;;;;;;;;;5052424;28;20044;-66
2022/03/19 07:25:09;;;;;;;12.90;3.58;;;;;;;;;;5052604;28;20049;-65
2022/03/19 07:27:34;;;;;;;8.60;3.13;;;;;;;;;;5052196;28;20073;-66
2022/03/19 07:30:00;;;;;;;12.30;3.67;;;;;;;;;;5051837;28;20256;-66
2022/03/19 07:32:25;;;;;;;10.93;4.03;;;;;;;;;;5052212;28;20272;-66
2022/03/19 07:34:51;;;;;;;11.87;3.93;;;;;;;;;;5051800;28;20383;-65
2022/03/19 07:37:16;;;;;;;10.95;3.85;;;;;;;;;;5050462;28;20420;-67
2022/03/19 07:39:41;;;;;;;10.80;4.23;;;;;;;;;;5051647;28;20541;-66
2022/03/19 07:42:08;;;;;;;7.95;3.53;;;;;;;;;;5052010;28;20400;-67
2022/03/19 07:44:34;;;;;;;10.07;4.10;;;;;;;;;;5052307;28;20048;-67
2022/03/19 07:46:59;;;;;;;11.03;4.90;;;;;;;;;;5051834;28;20044;-67
2022/03/19 07:49:24;;;;;;;10.38;3.85;;;;;;;;;;5052011;28;20334;-67
2022/03/19 07:51:55;;;;;;;20.30;4.73;;;;;;;;;;5051728;28;20017;-67
2022/03/19 07:54:20;;;;;;;19.45;4.65;;;;;;;;;;5051936;28;20027;-67
2022/03/19 07:56:48;;;;;;;10.93;3.67;;;;;;;;;;5065408;22;20060;-68
2022/03/19 07:59:13;;;;;;;6.63;3.25;;;;;;;;;;5050920;28;20071;-68
2022/03/19 08:01:39;;;;;;;8.90;3.90;;;;;;;;;;5051234;28;20025;-67
2022/03/19 08:04:04;;;;;;;7.47;3.50;;;;;;;;;;5051139;28;20260;-68
2022/03/19 08:06:29;;;;;;;9.02;3.33;;;;;;;;;;5051524;28;20439;-68
2022/03/19 08:08:54;;;;;;;13.20;3.27;;;;;;;;;;5051230;28;20055;-67
2022/03/19 08:11:19;;;;;;;12.10;3.63;;;;;;;;;;5051402;28;20017;-69
2022/03/19 08:13:45;;;;;;;8.25;3.40;;;;;;;;;;5051440;28;20493;-68
2022/03/19 08:16:10;;;;;;;9.50;3.25;;;;;;;;;;5051150;28;20021;-68
2022/03/19 08:18:36;;;;;;;7.28;3.60;;;;;;;;;;5051054;28;20516;-68
2022/03/19 08:21:01;;;;;;;7.18;3.35;;;;;;;;;;5050946;28;20106;-68
2022/03/19 08:23:26;;;;;;;8.88;3.63;;;;;;;;;;5051088;28;20044;-68
2022/03/19 08:25:52;;;;;;;11.70;3.88;;;;;;;;;;5050948;28;20028;-68
2022/03/19 08:28:17;;;;;;;8.68;2.92;;;;;;;;;;5050885;28;20366;-68
2022/03/19 08:30:42;;;;;;;7.50;3.03;;;;;;;;;;5050638;28;20029;-68
2022/03/19 08:33:07;;;;;;;10.90;3.63;;;;;;;;;;5050837;28;20261;-68
2022/03/19 08:35:33;;;;;;;10.97;2.93;;;;;;;;;;5051023;28;20099;-68
2022/03/19 08:40:42;;;;;;;14.25;4.63;;;;;;;;;;5050764;28;20035;-68
2022/03/19 08:43:07;;;;;;;9.53;3.03;;;;;;;;;;5050504;28;20013;-68
2022/03/19 08:45:32;;;;;;;7.05;2.72;;;;;;;;;;5050825;28;20613;-68
2022/03/19 08:47:57;;;;;;;8.30;3.00;;;;;;;;;;5050662;28;20017;-68
2022/03/19 08:50:24;;;;;;;9.10;3.00;;;;;;;;;;5050415;28;20263;-68
2022/03/19 08:52:49;;;;;;;7.05;2.85;;;;;;;;;;5050861;28;20082;-68
2022/03/19 08:55:15;;;;;;;7.13;2.72;;;;;;;;;;5050443;28;20021;-68
2022/03/19 08:57:40;;;;;;;6.90;2.75;;;;;;;;;;5050478;28;20025;-68
2022/03/19 09:00:06;;;;;;;12.87;3.27;;;;;;;;;;5050081;28;20187;-68
2022/03/19 09:02:31;;;;;;;7.05;2.85;;;;;;;;;;5050652;28;20616;-68
2022/03/19 09:04:57;;;;;;;11.13;4.05;;;;;;;;;;5031518;28;20024;-68
2022/03/19 09:07:22;;;;;;;8.48;2.83;;;;;;;;;;5050045;28;20013;-67
2022/03/19 09:09:52;;;;;;;11.60;3.17;;;;;;;;;;5050271;28;20017;-68
2022/03/19 09:12:17;;;;;;;;;;;;;;;;;;5033019;28;20347;-68
2022/03/19 09:14:42;;;;;;;9.13;2.75;;;;;;;;;;5050300;28;20008;-68
2022/03/19 09:17:08;;;;;;;9.90;3.10;;;;;;;;;;5050353;28;20040;-67
2022/03/19 09:19:33;;;;;;;11.30;1.87;;;;;;;;;;5049958;28;20580;-67
2022/03/19 09:21:59;;;;;;;11.70;3.10;;;;;;;;;;5032218;28;20731;-68
2022/03/19 09:24:24;;;;;;;7.28;3.03;;;;;;;;;;5050197;28;20266;-67
2022/03/19 09:26:49;;;;;;;11.27;2.58;;;;;;;;;;5050003;28;20013;-68
2022/03/19 09:29:15;;;;;;;6.47;2.40;;;;;;;;;;5049907;28;20100;-67
2022/03/19 09:31:41;;;;;;;11.15;3.17;;;;;;;;;;5050310;28;20017;-68
2022/03/19 09:34:06;;;;;;;12.50;3.50;;;;;;;;;;5032246;28;20024;-67
2022/03/19 09:36:31;;;;;;;7.13;2.40;;;;;;;;;;5050234;28;20466;-67
2022/03/19 09:38:56;;;;;;;5.97;2.45;;;;;;;;;;5049797;28;20267;-67
2022/03/19 09:41:22;;;;;;;8.30;2.45;;;;;;;;;;5052439;28;20461;-67
2022/03/19 09:43:47;;;;;;;5.35;2.10;;;;;;;;;;5054273;28;20025;-68
2022/03/19 09:46:13;;;;;;;8.35;2.08;;;;;;;;;;5053872;28;20426;-67
2022/03/19 09:48:38;;;;;;;10.32;1.67;;;;;;;;;;5054312;28;20096;-68
2022/03/19 09:51:07;;;;;;;9.00;2.30;;;;;;;;;;5053617;28;20035;-67
2022/03/19 09:53:33;;;;;;;4.95;2.00;;;;;;;;;;5053843;28;20251;-67
2022/03/19 09:55:58;;;;;;;8.02;2.35;;;;;;;;;;5053540;28;20087;-67
2022/03/19 09:58:23;;;;;;;7.50;1.85;;;;;;;;;;5053693;28;20082;-69
2022/03/19 10:00:49;;;;;;;4.50;1.60;;;;;;;;;;5054057;28;20031;-67
2022/03/19 10:03:14;;;;;;;7.28;1.73;;;;;;;;;;5053515;28;20392;-67
2022/03/19 10:08:37;;;;;;;9.13;2.05;;;;;;;;;;5054116;28;20430;-67
2022/03/19 10:11:02;;;;;;;7.00;1.75;;;;;;;;;;5053304;28;20021;-67
2022/03/19 10:13:27;;;;;;;5.97;1.50;;;;;;;;;;5053707;28;20025;-67
2022/03/19 10:15:53;;;;;;;1.77;1.10;;;;;;;;;;5053751;28;20291;-67
2022/03/19 10:18:18;;;;;;;4.15;1.48;;;;;;;;;;5053567;28;20039;-68
2022/03/19 10:20:44;;;;;;;6.20;1.40;;;;;;;;;;5053249;28;20048;-67
2022/03/19 10:23:09;;;;;;;7.10;1.48;;;;;;;;;;5035079;28;20066;-67
2022/03/19 10:25:34;;;;;;;9.38;2.13;;;;;;;;;;5053411;28;20510;-67
2022/03/19 10:28:01;;;;;;;5.47;1.20;;;;;;;;;;5053472;28;20024;-67
2022/03/19 10:30:34;;;;;;;5.47;1.75;;;;;;;;;;5052961;28;20114;-68
2022/03/19 10:32:59;;;;;;;1.80;1.05;;;;;;;;;;5053060;28;20033;-67
2022/03/19 10:35:25;;;;;;;3.80;1.40;;;;;;;;;;5052929;28;20079;-67
2022/03/19 10:37:51;;;;;;;4.50;1.27;;;;;;;;;;5053018;28;20267;-67
2022/03/19 10:40:16;;;;;;;4.80;1.33;;;;;;;;;;5052969;28;20025;-67
2022/03/19 10:42:42;;;;;;;3.08;1.15;;;;;;;;;;5053027;28;20288;-68
2022/03/19 10:45:14;;;;;;;6.72;1.60;;;;;;;;;;5052821;28;20489;-68
2022/03/19 10:47:42;;;;;;;4.18;0.82;;;;;;;;;;5052686;28;20021;-68
2022/03/19 10:50:08;;;;;;;4.45;1.10;;;;;;;;;;5034681;28;20021;-67
2022/03/19 10:52:35;;;;;;;3.78;1.10;;;;;;;;;;5052429;28;20105;-67
2022/03/19 10:55:03;;;;;;;5.82;2.20;;;;;;;;;;5052424;28;20049;-67
2022/03/19 10:57:28;;;;;;;1.63;0.80;;;;;;;;;;5035026;28;20090;-67
2022/03/19 10:59:54;;;;;;;2.65;0.85;;;;;;;;;;5052583;28;20029;-68
2022/03/19 11:02:19;;;;;;;3.80;1.08;;;;;;;;;;5052539;28;20023;-67
2022/03/19 11:04:46;;;;;;;4.55;1.27;;;;;;;;;;5052601;28;20013;-67
2022/03/19 11:07:12;;;;;;;2.15;0.65;;;;;;;;;;5051637;28;20021;-67
2022/03/19 11:09:38;;;;;;;4.57;1.27;;;;;;;;;;5052262;28;20351;-68
2022/03/19 11:12:07;;;;;;;5.03;1.45;;;;;;;;;;5052483;28;20024;-67
2022/03/19 11:14:35;;;;;;;5.32;1.70;;;;;;;;;;5052179;28;20465;-67
2022/03/19 11:17:27;;;;;;;1.85;1.08;;;;;;;;;;5034421;28;20415;-67
2022/03/19 11:19:53;;;;;;;8.73;2.40;;;;;;;;;;5051965;28;20441;-67
2022/03/19 11:22:18;;;;;;;4.78;1.40;;;;;;;;;;5052108;28;20086;-67
2022/03/19 11:25:07;;;;;;;3.78;1.17;;;;;;;;;;5052224;28;20428;-67
2022/03/19 11:27:34;;;;;;;4.63;1.52;;;;;;;;;;5033857;28;20021;-68
2022/03/19 11:29:59;;;;;;;5.40;0.93;;;;;;;;;;5051908;28;20048;-67
2022/03/19 11:32:25;;;;;;;2.40;1.13;;;;;;;;;;5051786;28;20056;-67
2022/03/19 11:34:51;;;;;;;4.63;1.40;;;;;;;;;;5052035;28;20045;-67
2022/03/19 11:37:16;;;;;;;5.28;1.45;;;;;;;;;;5051996;28;20028;-67
2022/03/19 11:40:00;;;;;;;2.40;1.10;;;;;;;;;;5051755;28;20013;-67
2022/03/19 11:42:29;;;;;;;4.82;1.67;;;;;;;;;;5051870;28;20017;-67
2022/03/19 11:44:54;;;;;;;4.38;1.75;;;;;;;;;;5051793;28;20015;-67
2022/03/19 11:47:21;;;;;;;4.17;1.30;;;;;;;;;;5051635;28;20020;-67
2022/03/19 11:49:48;;;;;;;6.10;1.70;;;;;;;;;;5051614;28;20260;-67
2022/03/19 11:52:18;;;;;;;4.05;1.42;;;;;;;;;;5051452;28;20036;-67
2022/03/19 11:55:05;;;;;;;5.18;2.08;;;;;;;;;;5051700;28;20036;-67
2022/03/19 11:57:45;;;;;;;3.92;1.20;;;;;;;;;;5033108;28;20041;-67
2022/03/19 12:00:13;;;;;;;2.45;1.35;;;;;;;;;;5051178;28;20025;-67
2022/03/19 12:02:57;;;;;;;7.00;1.30;;;;;;;;;;5051214;28;20013;-67
2022/03/19 12:05:26;;;;;;;4.95;1.65;;;;;;;;;;5051256;28;20025;-67
2022/03/19 12:07:54;;;;;;;4.18;1.15;;;;;;;;;;5051394;28;20017;-67
2022/03/19 12:10:20;;;;;;;3.65;1.25;;;;;;;;;;5051057;28;20035;-67
2022/03/19 12:12:46;;;;;;;3.28;1.15;;;;;;;;;;5051514;28;20032;-67
2022/03/19 12:15:46;;;;;;;4.80;1.17;;;;;;;;;;5051189;28;20021;-67
2022/03/19 12:18:24;;;;;;;4.65;0.73;;;;;;;;;;4969717;28;20408;-67
2022/03/19 12:20:53;;;;;;;4.78;1.00;;;;;;;;;;5040569;28;20062;-67
2022/03/19 12:23:19;;;;;;;4.13;1.13;;;;;;;;;;5051061;28;20024;-67
2022/03/19 12:25:54;;;;;;;3.78;0.93;;;;;;;;;;5051382;28;20017;-67
2022/03/19 12:28:19;;;;;;;3.70;0.98;;;;;;;;;;5051131;28;20017;-67
2022/03/19 12:30:45;;;;;;;2.25;0.70;;;;;;;;;;5050804;28;20023;-67
2022/03/19 12:33:10;;;;;;;4.97;0.97;;;;;;;;;;5033012;28;20079;-67
2022/03/19 12:35:39;;;;;;;2.00;0.70;;;;;;;;;;5050733;28;20259;-67
2022/03/19 12:38:05;;;;;;;1.80;0.75;;;;;;;;;;5050840;28;20043;-67
2022/03/19 12:41:23;;;;;;;4.18;0.90;;;;;;;;;;5050292;28;20544;-68
2022/03/19 12:43:16;;;;;;;2.08;0.65;;;;;;;;;;5050357;28;20477;-67
2022/03/19 12:45:44;;;;;;;7.40;0.90;;;;;;;;;;5050694;28;20096;-67
2022/03/19 12:48:13;;;;;;;2.67;0.70;;;;;;;;;;5050299;28;20283;-67
2022/03/19 12:50:39;;;;;;;2.55;0.75;;;;;;;;;;5050527;28;20028;-67
2022/03/19 12:53:04;;;;;;;4.25;0.60;;;;;;;;;;5050485;28;20013;-67
2022/03/19 12:55:30;;;;;;;2.20;0.73;;;;;;;;;;5050440;28;20035;-67
2022/03/19 12:57:56;;;;;;;3.97;1.23;;;;;;;;;;5050566;28;20461;-67
2022/03/19 13:00:22;;;;;;;2.22;0.50;;;;;;;;;;5032080;28;20028;-68
2022/03/19 13:02:48;;;;;;;5.10;0.68;;;;;;;;;;5050574;28;20039;-67
2022/03/19 13:05:13;;;;;;;10.20;0.73;;;;;;;;;;5050765;28;20512;-67
2022/03/19 13:07:38;;;;;;;3.07;0.60;;;;;;;;;;5050332;28;20021;-67
2022/03/19 13:10:13;;;;;;;2.27;0.90;;;;;;;;;;5050410;28;20284;-68
2022/03/19 13:12:38;;;;;;;1.25;0.35;;;;;;;;;;5050077;28;20334;-67
2022/03/19 13:15:03;;;;;;;2.25;0.40;;;;;;;;;;5050251;28;20111;-68
2022/03/19 13:17:30;;;;;;;6.68;0.82;;;;;;;;;;5050237;28;20017;-68
2022/03/19 13:20:05;;;;;;;3.17;0.80;;;;;;;;;;5049988;28;20492;-67
2022/03/19 13:22:30;;;;;;;2.25;0.95;;;;;;;;;;5050297;28;20028;-67
2022/03/19 13:24:56;;;;;;;4.87;0.70;;;;;;;;;;5032187;28;20009;-68
2022/03/19 13:27:33;;;;;;;0.65;0.47;;;;;;;;;;5050042;28;20259;-67
2022/03/19 13:29:59;;;;;;;3.63;0.52;;;;;;;;;;5050151;28;20021;-69
2022/03/19 13:32:25;;;;;;;1.88;0.55;;;;;;;;;;5049834;28;20104;-68
2022/03/19 13:34:50;;;;;;;2.90;0.75;;;;;;;;;;5050444;28;20120;-68
2022/03/19 13:37:18;;;;;;;2.20;0.57;;;;;;;;;;5031446;28;20392;-68
2022/03/19 13:39:46;;;;;;;6.13;0.55;;;;;;;;;;5048300;28;20025;-68
2022/03/19 13:42:12;;;;;;;2.13;0.60;;;;;;;;;;5050000;28;20380;-69
2022/03/19 13:44:38;;;;;;;4.15;1.20;;;;;;;;;;5050035;28;20035;-68
2022/03/19 13:47:14;;;;;;;2.72;0.80;;;;;;;;;;5050341;28;20458;-68
2022/03/19 13:49:41;;;;;;;3.35;0.95;;;;;;;;;;5050230;28;20104;-68
2022/03/19 13:52:25;;;;;;;5.35;0.85;;;;;;;;;;5050220;28;20055;-67
2022/03/19 13:54:50;;;;;;;2.97;1.00;;;;;;;;;;5050217;28;20021;-68
2022/03/19 13:59:46;;;;;;;;;;;;;;;;;;5065996;28;20302;-64
2022/03/19 14:02:11;;;;;;;7.93;1.15;;;;;;;;;;5069593;28;20257;-64
2022/03/19 14:04:37;;;;;;;3.40;0.70;;;;;;;;;;5070058;28;20074;-64
2022/03/19 14:07:06;;;;;;;4.88;0.98;;;;;;;;;;5069810;28;20380;-67
2022/03/19 14:09:31;;;;;;;3.95;0.93;;;;;;;;;;5069356;28;20112;-64
2022/03/19 14:11:57;;;;;;;3.85;1.20;;;;;;;;;;5069788;28;20409;-64
2022/03/19 14:14:22;;;;;;;4.60;1.35;;;;;;;;;;5069573;28;20365;-64
2022/03/19 14:16:54;;;;;;;2.70;0.87;;;;;;;;;;5068661;28;20381;-64
2022/03/19 14:19:20;;;;;;;6.47;1.05;;;;;;;;;;5069593;28;20319;-66
2022/03/19 14:21:45;;;;;;;10.05;1.00;;;;;;;;;;5069644;28;20465;-66
2022/03/19 14:24:11;;;;;;;6.53;1.20;;;;;;;;;;5069588;28;20028;-65
2022/03/19 14:26:36;;;;;;;5.60;1.67;;;;;;;;;;5070752;28;20338;-66
2022/03/19 14:29:01;;;;;;;3.90;0.87;;;;;;;;;;5072958;28;20273;-65
2022/03/19 14:31:26;;;;;;;4.07;1.00;;;;;;;;;;5073347;28;20312;-66
2022/03/19 14:33:51;;;;;;;5.27;1.57;;;;;;;;;;5073407;28;20271;-65
2022/03/19 14:36:16;;;;;;;4.50;1.05;;;;;;;;;;5072991;28;20263;-66
2022/03/19 14:38:42;;;;;;;3.50;0.80;;;;;;;;;;5072893;28;20365;-65
2022/03/19 14:41:09;;;;;;;3.58;1.08;;;;;;;;;;5072912;28;20070;-65
2022/03/19 14:43:34;;;;;;;9.57;0.80;;;;;;;;;;5072837;28;20031;-65
2022/03/19 14:46:01;;;;;;;1.75;0.55;;;;;;;;;;5072982;28;20270;-65
2022/03/19 14:48:27;;;;;;;3.78;1.10;;;;;;;;;;5072360;28;20568;-65
2022/03/19 14:50:53;;;;;;;3.53;1.52;;;;;;;;;;5072848;28;20028;-66
2022/03/19 14:53:18;;;;;;;6.28;0.80;;;;;;;;;;5071116;28;20021;-66